Time;durP1;ratioP1;P1;durP2;ratioP2;P2;SDS_P1;SDS_P2;PMS_P1;PMS_P2;Temp;Humidity;BMP_temperature;BMP_pressure;BME280_temperature;BME280_humidity;BME280_pressure;Samples;Min_cycle;Max_cycle;Signal;HPM_P1;HPM_P2
2021/10/23 00:00:27;;;;;;;;;;;6.00;99.90;;;;;;5035242;28;19913;-66
2021/10/23 00:02:53;;;;;;;;;;;6.00;99.90;;;;;;5035778;28;19927;-66
2021/10/23 00:05:18;;;;;;;;;;;6.00;99.90;;;;;;5025279;28;19921;-66
2021/10/23 00:07:44;;;;;;;;;;;6.00;99.90;;;;;;4996302;28;19921;-67
2021/10/23 00:10:10;;;;;;;;;;;6.00;99.90;;;;;;5023385;28;20129;-67
2021/10/23 00:12:35;;;;;;;;;;;6.00;99.90;;;;;;5019802;28;20032;-67
2021/10/23 00:15:01;;;;;;;;;;;6.00;99.90;;;;;;5017181;28;19921;-67
2021/10/23 00:17:26;;;;;;;;;;;6.00;99.90;;;;;;5036363;28;19954;-67
2021/10/23 00:19:52;;;;;;;;;;;6.00;99.90;;;;;;5040015;28;20435;-67
2021/10/23 00:22:18;;;;;;;;;;;6.00;99.90;;;;;;5021005;28;21371;-66
2021/10/23 00:24:43;;;;;;;;;;;6.00;99.90;;;;;;5017532;28;19939;-66
2021/10/23 00:27:08;;;;;;;;;;;6.00;99.90;;;;;;5029959;28;19921;-67
2021/10/23 00:29:34;;;;;;;;;;;6.00;99.90;;;;;;5039322;28;19917;-66
2021/10/23 00:31:59;;;;;;;;;;;6.00;99.90;;;;;;5039768;28;20445;-66
2021/10/23 00:34:25;;;;;;;;;;;6.00;99.90;;;;;;5033772;28;19928;-66
2021/10/23 00:36:50;;;;;;;;;;;6.10;99.90;;;;;;5005620;28;19912;-67
2021/10/23 00:39:16;;;;;;;;;;;6.10;99.90;;;;;;5031944;28;20387;-68
2021/10/23 00:41:41;;;;;;;;;;;6.10;99.90;;;;;;5038508;28;19912;-66
2021/10/23 00:44:26;;;;;;;;;;;6.20;99.90;;;;;;5035476;28;20335;-66
2021/10/23 00:46:51;;;;;;;;;;;6.20;99.90;;;;;;5036021;28;20452;-66
2021/10/23 00:49:16;;;;;;;;;;;6.20;99.90;;;;;;5038278;28;19917;-66
2021/10/23 00:51:42;;;;;;;;;;;6.30;99.90;;;;;;5038833;28;20222;-66
2021/10/23 00:54:07;;;;;;;;;;;6.30;99.90;;;;;;5004079;28;19916;-67
2021/10/23 00:56:33;;;;;;;;;;;6.40;99.90;;;;;;5037568;28;19917;-67
2021/10/23 00:58:58;;;;;;;;;;;6.40;99.90;;;;;;5036889;28;19927;-67
2021/10/23 01:01:24;;;;;;;;;;;6.40;99.90;;;;;;5037408;28;19983;-67
2021/10/23 01:03:50;;;;;;;;;;;6.40;99.90;;;;;;5033305;28;20044;-67
2021/10/23 01:06:15;;;;;;;;;;;6.40;99.90;;;;;;5036692;28;19913;-67
2021/10/23 01:08:40;;;;;;;;;;;6.40;99.90;;;;;;5039158;28;19960;-67
2021/10/23 01:11:06;;;;;;;;;;;6.40;99.90;;;;;;5036438;28;19909;-67
2021/10/23 01:13:31;;;;;;;;;;;6.40;99.90;;;;;;5004780;28;20435;-66
2021/10/23 01:15:57;;;;;;;;;;;6.30;99.90;;;;;;5032638;28;19909;-66
2021/10/23 01:18:22;;;;;;;;;;;6.30;99.90;;;;;;5034078;28;19921;-66
2021/10/23 01:20:48;;;;;;;;;;;6.30;99.90;;;;;;5034628;28;19920;-67
2021/10/23 01:23:13;;;;;;;;;;;6.30;99.90;;;;;;5032134;28;20050;-66
2021/10/23 01:25:39;;;;;;;;;;;6.20;99.90;;;;;;5034991;28;19923;-67
2021/10/23 01:28:04;;;;;;;;;;;6.20;99.90;;;;;;5034905;28;19951;-66
2021/10/23 01:30:30;;;;;;;;;;;6.20;99.90;;;;;;5031728;28;20441;-67
2021/10/23 01:32:57;;;;;;;;;;;6.20;99.90;;;;;;5036891;28;19921;-67
2021/10/23 01:35:23;;;;;;;;;;;6.10;99.90;;;;;;5035460;28;19921;-66
2021/10/23 01:37:48;;;;;;;;;;;6.10;99.90;;;;;;5034701;28;19992;-66
2021/10/23 01:40:15;;;;;;;;;;;6.10;99.90;;;;;;5030120;28;19949;-66
2021/10/23 01:42:41;;;;;;;;;;;6.10;99.90;;;;;;5024374;28;20272;-66
2021/10/23 01:45:07;;;;;;;;;;;6.00;99.90;;;;;;5024751;28;19984;-66
2021/10/23 01:47:32;;;;;;;;;;;6.10;99.90;;;;;;5036754;28;19917;-66
2021/10/23 01:49:58;;;;;;;;;;;6.10;99.90;;;;;;5033395;28;19978;-66
2021/10/23 01:52:23;;;;;;;;;;;6.10;99.90;;;;;;5035541;28;19924;-67
2021/10/23 01:54:49;;;;;;;;;;;6.00;99.90;;;;;;5032540;28;21562;-66
2021/10/23 01:57:14;;;;;;;;;;;6.00;99.90;;;;;;5004453;28;19951;-66
2021/10/23 01:59:40;;;;;;;;;;;6.00;99.90;;;;;;5031947;28;19916;-66
2021/10/23 02:02:05;;;;;;;;;;;5.90;99.90;;;;;;5020804;28;20311;-65
2021/10/23 02:04:31;;;;;;;;;;;5.90;99.90;;;;;;5034036;28;19959;-67
2021/10/23 02:06:56;;;;;;;;;;;5.90;99.90;;;;;;4999994;28;19971;-67
2021/10/23 02:09:21;;;;;;;;;;;5.90;99.90;;;;;;5034499;28;19920;-67
2021/10/23 02:11:47;;;;;;;;;;;5.90;99.90;;;;;;5032576;28;19931;-67
2021/10/23 02:14:12;;;;;;;;;;;5.90;99.90;;;;;;5034098;28;19928;-67
2021/10/23 02:16:38;;;;;;;;;;;5.90;99.90;;;;;;5018127;28;19934;-67
2021/10/23 02:19:03;;;;;;;;;;;5.90;99.90;;;;;;5035826;28;19928;-66
2021/10/23 02:21:29;;;;;;;;;;;5.90;99.90;;;;;;5039358;28;19917;-67
2021/10/23 02:23:54;;;;;;;;;;;5.90;99.90;;;;;;5038305;28;19939;-66
2021/10/23 02:26:20;;;;;;;;;;;5.90;99.90;;;;;;5036544;28;19988;-67
2021/10/23 02:28:45;;;;;;;;;;;5.90;99.90;;;;;;5003503;28;19979;-67
2021/10/23 02:31:11;;;;;;;;;;;5.90;99.90;;;;;;5032264;28;19913;-67
2021/10/23 02:33:37;;;;;;;;;;;5.90;99.90;;;;;;5036159;28;19939;-66
2021/10/23 02:36:02;;;;;;;;;;;5.90;99.90;;;;;;5033484;28;19971;-67
2021/10/23 02:38:28;;;;;;;;;;;5.90;99.90;;;;;;5035368;28;19924;-67
2021/10/23 02:40:56;;;;;;;;;;;6.00;99.90;;;;;;5035168;28;19929;-67
2021/10/23 02:43:21;;;;;;;;;;;6.00;99.90;;;;;;5033261;28;19960;-67
2021/10/23 02:45:47;;;;;;;;;;;6.10;99.90;;;;;;5035949;28;20399;-67
2021/10/23 02:48:12;;;;;;;;;;;6.10;99.90;;;;;;5032162;28;20275;-67
2021/10/23 02:50:38;;;;;;;;;;;6.10;99.90;;;;;;5037508;28;19909;-66
2021/10/23 02:53:03;;;;;;;;;;;6.20;99.90;;;;;;5033052;28;19999;-67
2021/10/23 02:55:28;;;;;;;;;;;6.20;99.90;;;;;;5034064;28;19939;-67
2021/10/23 02:57:54;;;;;;;;;;;6.20;99.90;;;;;;5023057;28;19921;-66
2021/10/23 03:00:21;;;;;;;;;;;6.20;99.90;;;;;;4999743;28;20218;-66
2021/10/23 03:02:46;;;;;;;;;;;6.30;99.90;;;;;;5001881;28;19967;-66
2021/10/23 03:05:12;;;;;;;;;;;6.30;99.90;;;;;;5035714;28;19921;-66
2021/10/23 03:07:38;;;;;;;;;;;6.30;99.90;;;;;;5035672;28;20311;-66
2021/10/23 03:10:03;;;;;;;;;;;6.30;99.90;;;;;;5034979;28;19916;-67
2021/10/23 03:12:29;;;;;;;;;;;6.30;99.90;;;;;;5035576;28;19951;-66
2021/10/23 03:14:55;;;;;;;;;;;6.30;99.90;;;;;;5036372;28;19967;-66
2021/10/23 03:17:20;;;;;;;;;;;6.30;99.90;;;;;;5002840;28;19963;-67
2021/10/23 03:19:45;;;;;;;;;;;6.30;99.90;;;;;;5037730;28;19913;-67
2021/10/23 03:22:11;;;;;;;;;;;6.30;99.90;;;;;;5037955;28;19916;-68
2021/10/23 03:24:36;;;;;;;;;;;6.30;99.90;;;;;;5022495;28;19958;-66
2021/10/23 03:27:02;;;;;;;;;;;6.30;99.90;;;;;;5039813;28;19927;-65
2021/10/23 03:29:27;;;;;;;;;;;6.30;99.90;;;;;;5040499;28;19996;-66
2021/10/23 03:31:53;;;;;;;;;;;6.40;99.90;;;;;;5037199;28;19955;-67
2021/10/23 03:34:18;;;;;;;;;;;6.40;99.90;;;;;;5036639;28;19921;-66
2021/10/23 03:36:44;;;;;;;;;;;6.40;99.90;;;;;;5040754;28;19916;-66
2021/10/23 03:39:09;;;;;;;;;;;6.30;99.90;;;;;;5039994;28;19917;-67
2021/10/23 03:41:36;;;;;;;;;;;6.30;99.90;;;;;;5039134;28;19978;-67
2021/10/23 03:44:02;;;;;;;;;;;6.30;99.90;;;;;;5039400;28;19920;-67
2021/10/23 03:46:28;;;;;;;;;;;6.30;99.90;;;;;;5040818;28;19917;-66
2021/10/23 03:48:53;;;;;;;;;;;6.40;99.90;;;;;;5006424;28;20357;-67
2021/10/23 03:51:18;;;;;;;;;;;6.40;99.90;;;;;;5039525;28;20351;-67
2021/10/23 03:53:44;;;;;;;;;;;6.40;99.90;;;;;;5036606;28;19958;-67
2021/10/23 03:56:09;;;;;;;;;;;6.40;99.90;;;;;;5021690;28;19959;-67
2021/10/23 03:58:35;;;;;;;;;;;6.30;99.90;;;;;;5039802;28;19943;-66
2021/10/23 04:01:00;;;;;;;;;;;6.30;99.90;;;;;;5039681;28;19920;-67
2021/10/23 04:03:25;;;;;;;;;;;6.30;99.90;;;;;;5038113;28;19917;-67
2021/10/23 04:05:51;;;;;;;;;;;6.30;99.90;;;;;;5039577;28;19913;-67
2021/10/23 04:08:16;;;;;;;;;;;6.20;99.90;;;;;;5006582;28;20008;-67
2021/10/23 04:10:42;;;;;;;;;;;6.20;99.90;;;;;;5038730;28;19919;-67
2021/10/23 04:13:07;;;;;;;;;;;6.20;99.90;;;;;;5036507;28;19916;-67
2021/10/23 04:15:33;;;;;;;;;;;6.10;99.90;;;;;;5039514;28;19917;-66
2021/10/23 04:17:59;;;;;;;;;;;6.10;99.90;;;;;;5006604;28;20425;-66
2021/10/23 04:20:24;;;;;;;;;;;6.10;99.90;;;;;;5005224;28;20023;-67
2021/10/23 04:22:50;;;;;;;;;;;6.10;99.90;;;;;;5037812;28;19950;-66
2021/10/23 04:25:15;;;;;;;;;;;6.00;99.90;;;;;;5037650;28;19917;-67
2021/10/23 04:27:41;;;;;;;;;;;6.00;99.90;;;;;;5039101;28;19919;-66
2021/10/23 04:30:06;;;;;;;;;;;6.00;99.90;;;;;;5037030;28;19925;-67
2021/10/23 04:32:32;;;;;;;;;;;5.90;99.90;;;;;;5039181;28;19913;-67
2021/10/23 04:34:57;;;;;;;;;;;6.00;99.90;;;;;;5039634;28;19913;-67
2021/10/23 04:37:22;;;;;;;;;;;5.90;99.90;;;;;;5039815;28;20368;-67
2021/10/23 04:39:48;;;;;;;;;;;6.00;99.90;;;;;;5004374;28;20434;-66
2021/10/23 04:42:14;;;;;;;;;;;6.00;99.90;;;;;;5019809;28;20346;-67
2021/10/23 04:44:39;;;;;;;;;;;6.00;99.90;;;;;;5037891;28;19959;-66
2021/10/23 04:47:05;;;;;;;;;;;6.00;99.90;;;;;;5038643;28;20116;-66
2021/10/23 04:49:30;;;;;;;;;;;6.00;99.90;;;;;;5019699;28;19917;-66
2021/10/23 04:51:56;;;;;;;;;;;6.00;99.90;;;;;;5005889;28;20296;-66
2021/10/23 04:54:21;;;;;;;;;;;6.00;99.90;;;;;;5036212;28;19924;-66
2021/10/23 04:56:47;;;;;;;;;;;6.00;99.90;;;;;;5038804;28;19921;-66
2021/10/23 04:59:12;;;;;;;;;;;6.00;99.90;;;;;;5037931;28;19917;-66
2021/10/23 05:01:38;;;;;;;;;;;6.00;99.90;;;;;;5037048;28;19956;-67
2021/10/23 05:04:03;;;;;;;;;;;6.00;99.90;;;;;;5036861;28;19928;-71
2021/10/23 05:06:29;;;;;;;;;;;6.00;99.90;;;;;;5036489;28;20314;-71
2021/10/23 05:08:54;;;;;;;;;;;6.00;99.90;;;;;;5037796;28;19960;-71
2021/10/23 05:11:20;;;;;;;;;;;6.00;99.90;;;;;;5037973;28;19921;-71
2021/10/23 05:13:45;;;;;;;;;;;6.00;99.90;;;;;;5036300;28;20272;-71
2021/10/23 05:16:10;;;;;;;;;;;6.00;99.90;;;;;;5003225;28;20372;-71
2021/10/23 05:18:36;;;;;;;;;;;6.00;99.90;;;;;;5035870;28;19928;-71
2021/10/23 05:21:01;;;;;;;;;;;6.00;99.90;;;;;;5004148;28;20299;-71
2021/10/23 05:23:27;;;;;;;;;;;6.10;99.90;;;;;;5036780;28;19917;-72
2021/10/23 05:25:52;;;;;;;;;;;6.10;99.90;;;;;;5036318;28;20264;-69
2021/10/23 05:28:18;;;;;;;;;;;6.10;99.90;;;;;;5018257;28;19924;-71
2021/10/23 05:30:43;;;;;;;;;;;6.10;99.90;;;;;;5035887;28;19921;-71
2021/10/23 05:33:09;;;;;;;;;;;6.20;99.90;;;;;;5033696;28;19927;-70
2021/10/23 05:35:34;;;;;;;;;;;6.20;99.90;;;;;;5038109;28;19913;-71
2021/10/23 05:37:59;;;;;;;;;;;6.10;99.90;;;;;;5037183;28;20036;-71
2021/10/23 05:40:25;;;;;;;;;;;6.10;99.90;;;;;;5034113;28;20406;-71
2021/10/23 05:42:50;;;;;;;;;;;6.10;99.90;;;;;;5032226;28;19913;-70
2021/10/23 05:45:16;;;;;;;;;;;6.10;99.90;;;;;;5035744;28;19918;-71
2021/10/23 05:47:41;;;;;;;;;;;6.00;99.90;;;;;;5017864;28;19913;-70
2021/10/23 05:50:08;;;;;;;;;;;6.00;99.90;;;;;;5034796;28;19963;-71
2021/10/23 05:52:34;;;;;;;;;;;6.10;99.90;;;;;;5036056;28;19957;-70
2021/10/23 05:54:59;;;;;;;;;;;6.00;99.90;;;;;;5001823;28;20294;-71
2021/10/23 05:57:25;;;;;;;;;;;6.00;99.90;;;;;;5037092;28;19994;-71
2021/10/23 05:59:50;;;;;;;;;;;6.00;99.90;;;;;;5035891;28;20125;-71
2021/10/23 06:02:23;;;;;;;;;;;6.00;99.90;;;;;;5034158;28;20007;-71
2021/10/23 06:04:53;;;;;;;;;;;6.00;99.90;;;;;;5037260;28;19967;-71
2021/10/23 06:07:20;;;;;;;;;;;6.00;99.90;;;;;;5036813;28;19978;-70
2021/10/23 06:09:45;;;;;;;;;;;6.00;99.90;;;;;;5035320;28;19967;-71
2021/10/23 06:12:11;;;;;;;;;;;6.00;99.90;;;;;;5033844;28;19916;-71
2021/10/23 06:14:36;;;;;;;;;;;6.00;99.90;;;;;;5033102;28;20294;-71
2021/10/23 06:17:02;;;;;;;;;;;6.00;99.90;;;;;;5034630;28;20304;-72
2021/10/23 06:19:28;;;;;;;;;;;6.00;99.90;;;;;;5034851;28;20265;-71
2021/10/23 06:21:53;;;;;;;;;;;6.00;99.90;;;;;;5033749;28;19921;-70
2021/10/23 06:24:18;;;;;;;;;;;6.00;99.90;;;;;;5035446;28;19936;-70
2021/10/23 06:26:44;;;;;;;;;;;6.00;99.90;;;;;;5036714;28;19912;-70
2021/10/23 06:29:09;;;;;;;;;;;6.10;99.90;;;;;;5034746;28;19917;-71
2021/10/23 06:31:35;;;;;;;;;;;6.20;99.90;;;;;;5032685;28;23335;-70
2021/10/23 06:34:01;;;;;;;;;;;6.20;99.90;;;;;;5029612;28;19917;-70
2021/10/23 06:36:26;;;;;;;;;;;6.30;99.90;;;;;;5032973;28;19917;-70
2021/10/23 06:38:51;;;;;;;;;;;6.40;99.90;;;;;;5036902;28;19948;-69
2021/10/23 06:41:17;;;;;;;;;;;6.40;99.90;;;;;;5033309;28;19921;-70
2021/10/23 06:43:42;;;;;;;;;;;6.40;99.90;;;;;;5014234;28;19935;-70
2021/10/23 06:46:08;;;;;;;;;;;6.40;99.90;;;;;;5005723;28;20544;-70
2021/10/23 06:48:33;;;;;;;;;;;6.40;99.90;;;;;;5034515;28;20292;-70
2021/10/23 06:50:58;;;;;;;;;;;6.50;99.90;;;;;;5032989;28;19917;-70
2021/10/23 06:53:24;;;;;;;;;;;6.50;99.90;;;;;;5039106;28;19925;-70
2021/10/23 06:55:49;;;;;;;;;;;6.50;99.90;;;;;;5040621;28;19917;-71
2021/10/23 06:58:15;;;;;;;;;;;6.60;99.90;;;;;;5041320;28;19952;-70
2021/10/23 07:00:40;;;;;;;;;;;6.60;99.90;;;;;;5036839;28;20402;-70
2021/10/23 07:03:06;;;;;;;;;;;6.60;99.90;;;;;;5040874;28;19913;-70
2021/10/23 07:05:31;;;;;;;;;;;6.60;99.90;;;;;;5037593;28;19990;-71
2021/10/23 07:07:57;;;;;;;;;;;6.60;99.90;;;;;;5036178;28;20261;-71
2021/10/23 07:10:23;;;;;;;;;;;6.70;99.90;;;;;;5036576;28;19924;-71
2021/10/23 07:12:48;;;;;;;;;;;6.70;99.90;;;;;;5038549;28;19917;-71
2021/10/23 07:15:14;;;;;;;;;;;6.70;99.90;;;;;;5040775;28;20402;-71
2021/10/23 07:17:39;;;;;;;;;;;6.70;99.90;;;;;;5038500;28;19966;-71
2021/10/23 07:20:05;;;;;;;;;;;6.70;99.90;;;;;;5039803;28;20260;-71
2021/10/23 07:22:31;;;;;;;;;;;6.70;99.90;;;;;;5039605;28;19920;-70
2021/10/23 07:24:56;;;;;;;;;;;6.80;99.90;;;;;;5036289;28;19955;-72
2021/10/23 07:27:22;;;;;;;;;;;6.80;99.90;;;;;;5041023;28;20164;-72
2021/10/23 07:29:47;;;;;;;;;;;6.90;99.90;;;;;;5037822;28;19924;-72
2021/10/23 07:32:13;;;;;;;;;;;6.90;99.90;;;;;;5040414;28;20418;-72
2021/10/23 07:34:38;;;;;;;;;;;6.90;99.90;;;;;;5039328;28;19920;-72
2021/10/23 07:37:04;;;;;;;;;;;6.90;99.90;;;;;;5040885;28;19921;-72
2021/10/23 07:39:29;;;;;;;;;;;6.90;99.90;;;;;;5040369;28;19909;-72
2021/10/23 07:41:55;;;;;;;;;;;6.90;99.90;;;;;;5036876;28;19917;-72
2021/10/23 07:44:20;;;;;;;;;;;6.90;99.90;;;;;;5034117;28;20284;-72
2021/10/23 07:46:46;;;;;;;;;;;7.00;99.90;;;;;;5039439;28;19963;-72
2021/10/23 07:49:11;;;;;;;;;;;7.00;99.90;;;;;;5037710;28;20160;-71
2021/10/23 07:51:37;;;;;;;;;;;7.00;99.90;;;;;;5006333;28;19947;-71
2021/10/23 07:54:08;;;;;;;;;;;7.10;99.90;;;;;;5039681;28;20333;-72
2021/10/23 07:56:33;;;;;;;;;;;7.20;99.90;;;;;;5005191;28;19920;-71
2021/10/23 07:58:59;;;;;;;;;;;7.20;99.90;;;;;;5004274;28;19913;-71
2021/10/23 08:01:25;;;;;;;;;;;7.30;99.90;;;;;;5037556;28;19928;-73
2021/10/23 08:03:50;;;;;;;;;;;7.30;99.90;;;;;;5030266;28;19920;-72
2021/10/23 08:06:16;;;;;;;;;;;7.40;99.90;;;;;;5039197;28;20425;-72
2021/10/23 08:08:42;;;;;;;;;;;7.40;99.90;;;;;;5034825;28;19925;-72
2021/10/23 08:11:07;;;;;;;;;;;7.50;99.90;;;;;;5017137;28;19913;-66
2021/10/23 08:13:33;;;;;;;;;;;7.70;99.90;;;;;;5038041;28;19928;-71
2021/10/23 08:15:59;;;;;;;;;;;8.40;99.90;;;;;;5037235;28;19924;-69
2021/10/23 08:18:24;;;;;;;;;;;8.60;99.80;;;;;;5035686;28;19970;-68
2021/10/23 08:20:50;;;;;;;;;;;8.60;99.40;;;;;;5037915;28;19921;-69
2021/10/23 08:23:16;;;;;;;;;;;8.50;99.20;;;;;;5037229;28;19916;-68
2021/10/23 08:25:42;;;;;;;;;;;8.40;99.00;;;;;;5034331;28;19921;-69
2021/10/23 08:28:07;;;;;;;;;;;8.40;98.90;;;;;;5035654;28;20325;-68
2021/10/23 08:30:33;;;;;;;;;;;8.40;99.10;;;;;;5038727;28;19964;-69
2021/10/23 08:32:59;;;;;;;;;;;8.30;99.00;;;;;;5041577;28;20667;-65
2021/10/23 08:35:24;;;;;;;;;;;8.40;99.90;;;;;;5039447;28;20710;-69
2021/10/23 08:37:52;;;;;;;;;;;8.90;99.80;;;;;;5036704;28;19968;-69
2021/10/23 08:40:17;;;;;;;;;;;9.20;98.70;;;;;;5018164;28;19917;-69
2021/10/23 08:42:43;;;;;;;;;;;9.20;98.00;;;;;;5036984;28;19917;-68
2021/10/23 08:45:10;;;;;;;;;;;9.10;98.00;;;;;;5035875;28;19913;-69
2021/10/23 08:47:39;;;;;;;;;;;9.10;98.20;;;;;;5037523;28;19959;-69
2021/10/23 08:50:05;;;;;;;;;;;9.00;97.90;;;;;;5038956;28;19943;-69
2021/10/23 08:52:31;;;;;;;;;;;9.00;98.00;;;;;;5037225;28;19917;-69
2021/10/23 08:54:57;;;;;;;;;;;9.00;98.00;;;;;;5038872;28;19940;-70
2021/10/23 08:57:25;;;;;;;;;;;9.10;98.30;;;;;;5037149;28;20008;-70
2021/10/23 08:59:51;;;;;;;;;;;9.20;97.90;;;;;;5039616;28;19913;-69
2021/10/23 09:02:18;;;;;;;;;;;9.30;98.00;;;;;;5037920;28;19920;-70
2021/10/23 09:04:43;;;;;;;;;;;9.30;97.70;;;;;;5038549;28;19917;-69
2021/10/23 09:07:10;;;;;;;;;;;9.30;97.70;;;;;;5005437;28;19928;-69
2021/10/23 09:09:51;;;;;;;;;;;9.40;97.50;;;;;;5039121;28;19928;-70
2021/10/23 09:12:36;;;;;;;;;;;9.30;97.60;;;;;;5020173;28;20419;-70
2021/10/23 09:15:02;;;;;;;;;;;9.40;97.90;;;;;;5039082;28;19960;-69
2021/10/23 09:17:27;;;;;;;;;;;9.50;97.90;;;;;;5039350;28;19952;-69
2021/10/23 09:19:54;;;;;;;;;;;9.60;97.90;;;;;;5038604;28;19920;-70
2021/10/23 09:22:24;;;;;;;;;;;9.60;97.70;;;;;;5038665;28;19919;-70
2021/10/23 09:24:50;;;;;;;;;;;9.60;97.50;;;;;;5038777;28;19979;-69
2021/10/23 09:27:16;;;;;;;;;;;9.60;97.70;;;;;;5004839;28;19963;-70
2021/10/23 09:29:41;;;;;;;;;;;9.60;97.70;;;;;;5037942;28;20335;-70
2021/10/23 09:32:10;;;;;;;;;;;9.60;97.70;;;;;;5037902;28;19921;-70
2021/10/23 09:34:37;;;;;;;;;;;9.60;97.70;;;;;;5038226;28;19913;-70
2021/10/23 09:37:05;;;;;;;;;;;9.70;97.90;;;;;;5038730;28;19917;-70
2021/10/23 09:39:31;;;;;;;;;;;9.70;97.60;;;;;;5038496;28;19941;-70
2021/10/23 09:42:03;;;;;;;;;;;9.80;97.30;;;;;;5030483;28;19913;-70
2021/10/23 09:44:29;;;;;;;;;;;9.90;97.30;;;;;;5031718;28;20023;-73
2021/10/23 09:46:54;;;;;;;;;;;10.10;97.20;;;;;;5035927;28;19924;-72
2021/10/23 09:49:23;;;;;;;;;;;10.10;96.80;;;;;;5035755;28;19916;-72
2021/10/23 09:52:01;;;;;;;;;;;10.20;96.60;;;;;;5037208;28;20407;-72
2021/10/23 09:54:27;;;;;;;;;;;10.20;96.90;;;;;;5036428;28;19917;-72
2021/10/23 09:56:52;;;;;;;;;;;10.30;96.80;;;;;;5032450;28;19917;-73
2021/10/23 09:59:34;;;;;;;;;;;10.40;96.90;;;;;;5032410;28;19917;-72
2021/10/23 10:02:01;;;;;;;;;;;10.40;96.60;;;;;;5035145;28;19909;-72
2021/10/23 10:04:28;;;;;;;;;;;10.50;96.00;;;;;;5032686;28;19921;-74
2021/10/23 10:06:54;;;;;;;;;;;10.60;95.50;;;;;;5038253;28;19975;-72
2021/10/23 10:09:20;;;;;;;;;;;10.60;95.50;;;;;;5032357;28;19956;-73
2021/10/23 10:11:49;;;;;;;;;;;10.70;95.10;;;;;;5037549;28;20003;-74
2021/10/23 10:14:15;;;;;;;;;;;10.70;95.70;;;;;;5036067;28;20407;-72
2021/10/23 10:16:44;;;;;;;;;;;10.80;95.90;;;;;;5030495;28;19923;-73
2021/10/23 10:19:10;;;;;;;;;;;10.90;95.30;;;;;;5035520;28;19920;-74
2021/10/23 10:21:36;;;;;;;;;;;11.10;95.30;;;;;;5035558;28;19921;-73
2021/10/23 10:24:13;;;;;;;;;;;11.10;94.70;;;;;;5037007;28;20363;-74
2021/10/23 10:26:39;;;;;;;;;;;11.10;94.70;;;;;;5036656;28;19961;-74
2021/10/23 10:29:05;;;;;;;;;;;11.10;94.60;;;;;;5037640;28;20782;-74
2021/10/23 10:32:34;;;;;;;;;;;11.00;94.50;;;;;;5035989;28;19921;-73
2021/10/23 10:34:47;;;;;;;;;;;11.10;94.60;;;;;;5024840;28;19913;-73
2021/10/23 10:40:31;;;;;;;;;;;11.20;94.80;;;;;;5035180;28;20025;-65
2021/10/23 10:43:09;;;;;;;;;;;11.40;95.80;;;;;;5015592;28;20051;-74
2021/10/23 10:45:34;;;;;;;;;;;11.80;96.10;;;;;;5035839;28;19964;-72
2021/10/23 10:48:22;;;;;;;;;;;12.00;94.10;;;;;;5030406;28;20592;-74
2021/10/23 10:50:55;;;;;;;;;;;11.90;92.50;;;;;;5034228;28;19952;-75
2021/10/23 10:53:20;;;;;;;;;;;11.70;93.00;;;;;;5032317;28;19969;-78
2021/10/23 10:55:50;;;;;;;;;;;11.60;92.30;;;;;;5035390;28;19945;-76
2021/10/23 10:58:16;;;;;;;;;;;11.50;92.50;;;;;;5033036;28;19912;-75
2021/10/23 11:01:02;;;;;;;;;;;11.30;92.70;;;;;;5005854;28;19921;-76
2021/10/23 11:03:46;;;;;;;;;;;11.20;92.90;;;;;;5020825;28;19917;-77
2021/10/23 11:06:30;;;;;;;;;;;11.10;93.40;;;;;;5031812;28;19917;-74
2021/10/23 11:09:11;;;;;;;;;;;11.20;93.70;;;;;;5012269;28;19925;-71
2021/10/23 11:11:42;;;;;;;;;;;11.30;94.00;;;;;;5033091;28;20047;-70
2021/10/23 11:14:09;;;;;;;;;;;11.50;93.80;;;;;;5033822;28;20112;-72
2021/10/23 11:16:35;;;;;;;;;;;11.60;92.80;;;;;;5033375;28;19913;-73
2021/10/23 11:19:01;;;;;;;;;;;11.60;92.30;;;;;;5032047;28;20413;-71
2021/10/23 11:21:27;;;;;;;;;;;11.50;92.20;;;;;;5032705;28;20097;-72
2021/10/23 11:23:53;;;;;;;;;;;11.50;92.60;;;;;;5033033;28;19940;-71
2021/10/23 11:26:19;;;;;;;;;;;11.50;92.50;;;;;;5032435;28;19975;-71
2021/10/23 11:28:44;;;;;;;;;;;11.50;92.10;;;;;;5035436;28;19983;-72
2021/10/23 11:31:17;;;;;;;;;;;11.60;92.30;;;;;;5033122;28;20268;-72
2021/10/23 11:33:42;;;;;;;;;;;11.60;92.20;;;;;;5003026;28;19948;-73
2021/10/23 11:36:12;;;;;;;;;;;11.70;92.10;;;;;;5013857;28;20621;-73
2021/10/23 11:38:38;;;;;;;;;;;11.60;91.60;;;;;;5017193;28;19964;-73
2021/10/23 11:41:04;;;;;;;;;;;11.50;91.90;;;;;;5038477;28;19917;-71
2021/10/23 11:43:33;;;;;;;;;;;11.50;92.20;;;;;;5038061;28;19952;-72
2021/10/23 11:46:00;;;;;;;;;;;11.50;92.30;;;;;;5018514;28;19913;-72
2021/10/23 11:48:25;;;;;;;;;;;11.60;92.40;;;;;;5038881;28;19912;-73
2021/10/23 11:50:52;;;;;;;;;;;11.60;92.30;;;;;;5034546;28;20392;-72
2021/10/23 11:53:20;;;;;;;;;;;11.70;91.10;;;;;;5035171;28;19921;-72
2021/10/23 11:55:49;;;;;;;;;;;11.60;91.90;;;;;;5037406;28;20019;-72
2021/10/23 11:58:16;;;;;;;;;;;11.70;92.20;;;;;;5037536;28;19921;-72
2021/10/23 12:00:42;;;;;;;;;;;11.70;92.10;;;;;;5036018;28;19923;-72
2021/10/23 12:03:09;;;;;;;;;;;11.60;92.20;;;;;;5036321;28;19920;-74
2021/10/23 12:05:45;;;;;;;;;;;11.60;91.60;;;;;;5034454;28;19925;-73
2021/10/23 12:08:28;;;;;;;;;;;11.60;91.90;;;;;;5035667;28;19917;-72
2021/10/23 12:11:04;;;;;;;;;;;11.60;91.90;;;;;;5035817;28;20399;-74
2021/10/23 12:13:41;;;;;;;;;;;11.60;91.90;;;;;;5037497;28;19924;-70
2021/10/23 12:16:06;;;;;;;;;;;11.60;91.40;;;;;;5033735;28;20020;-71
2021/10/23 12:18:39;;;;;;;;;;;11.60;91.60;;;;;;5033771;28;20431;-72
2021/10/23 12:21:14;;;;;;;;;;;11.60;91.40;;;;;;5003822;28;19978;-71
2021/10/23 12:23:44;;;;;;;;;;;11.60;91.70;;;;;;5037756;28;19913;-71
2021/10/23 12:26:09;;;;;;;;;;;11.50;91.80;;;;;;5039573;28;19916;-71
2021/10/23 12:28:53;;;;;;;;;;;11.60;91.80;;;;;;5038690;28;19913;-71
2021/10/23 12:31:20;;;;;;;;;;;11.60;92.10;;;;;;5017885;28;21311;-71
2021/10/23 12:34:05;;;;;;;;;;;11.60;92.10;;;;;;5039700;28;19921;-71
2021/10/23 12:36:34;;;;;;;;;;;11.60;91.90;;;;;;5036516;28;19940;-72
2021/10/23 12:39:18;;;;;;;;;;;11.70;92.00;;;;;;5036851;28;20375;-72
2021/10/23 12:41:43;;;;;;;;;;;11.70;92.10;;;;;;5021516;28;19959;-71
2021/10/23 12:44:09;;;;;;;;;;;11.80;91.60;;;;;;5033595;28;19917;-72
2021/10/23 12:46:35;;;;;;;;;;;11.80;91.30;;;;;;5006495;28;19920;-72
2021/10/23 12:49:00;;;;;;;;;;;11.80;91.50;;;;;;5035904;28;20287;-72
2021/10/23 12:51:30;;;;;;;;;;;11.80;90.80;;;;;;5038430;28;19963;-72
2021/10/23 12:53:55;;;;;;;;;;;11.80;90.60;;;;;;5038837;28;19921;-73
2021/10/23 12:56:21;;;;;;;;;;;11.80;91.00;;;;;;5003561;28;20342;-72
2021/10/23 12:58:46;;;;;;;;;;;11.80;90.50;;;;;;5005506;28;20450;-72
2021/10/23 13:01:12;;;;;;;;;;;11.80;90.60;;;;;;5004803;28;19913;-72
2021/10/23 13:03:37;;;;;;;;;;;11.80;90.90;;;;;;5033990;28;19917;-70
2021/10/23 13:06:03;;;;;;;;;;;11.80;91.00;;;;;;5035552;28;20402;-71
2021/10/23 13:08:29;;;;;;;;;;;11.80;91.10;;;;;;5038437;28;19971;-72
2021/10/23 13:10:54;;;;;;;;;;;11.80;91.30;;;;;;5035644;28;19967;-71
2021/10/23 13:13:20;;;;;;;;;;;11.80;91.30;;;;;;5036044;28;20346;-71
2021/10/23 13:15:45;;;;;;;;;;;11.80;91.50;;;;;;5004489;28;20329;-71
2021/10/23 13:18:11;;;;;;;;;;;11.70;91.40;;;;;;5035553;28;20447;-72
2021/10/23 13:20:36;;;;;;;;;;;11.70;91.30;;;;;;5037003;28;19958;-71
2021/10/23 13:23:02;;;;;;;;;;;11.70;91.40;;;;;;5020971;28;20014;-71
2021/10/23 13:25:28;;;;;;;;;;;11.60;91.30;;;;;;5004249;28;20355;-71
2021/10/23 13:27:53;;;;;;;;;;;11.60;91.50;;;;;;5037441;28;19920;-72
2021/10/23 13:30:19;;;;;;;;;;;11.60;91.10;;;;;;5037469;28;19916;-72
2021/10/23 13:32:44;;;;;;;;;;;11.50;91.30;;;;;;5033868;28;20432;-71
2021/10/23 13:35:10;;;;;;;;;;;11.50;91.60;;;;;;5038490;28;19916;-71
2021/10/23 13:37:36;;;;;;;;;;;11.50;91.70;;;;;;5034857;28;19924;-71
2021/10/23 13:40:01;;;;;;;;;;;11.50;91.90;;;;;;5005395;28;19913;-71
2021/10/23 13:42:27;;;;;;;;;;;11.60;91.90;;;;;;5035681;28;19921;-71
2021/10/23 13:44:52;;;;;;;;;;;11.60;91.80;;;;;;5037837;28;19913;-71
2021/10/23 13:47:19;;;;;;;;;;;11.60;91.80;;;;;;5035219;28;19924;-71
2021/10/23 13:49:44;;;;;;;;;;;11.60;92.00;;;;;;5035844;28;20020;-71
2021/10/23 13:52:10;;;;;;;;;;;11.60;91.80;;;;;;5004698;28;20012;-71
2021/10/23 13:54:35;;;;;;;;;;;11.60;91.90;;;;;;5035462;28;19913;-72
2021/10/23 13:57:01;;;;;;;;;;;11.60;91.90;;;;;;5034416;28;19924;-72
2021/10/23 13:59:26;;;;;;;;;;;11.60;91.90;;;;;;5038408;28;19913;-71
2021/10/23 14:01:52;;;;;;;;;;;11.50;92.00;;;;;;5033717;28;20020;-72
2021/10/23 14:04:18;;;;;;;;;;;11.50;92.00;;;;;;5033334;28;19923;-71
2021/10/23 14:06:43;;;;;;;;;;;11.50;92.10;;;;;;5036094;28;20558;-71
2021/10/23 14:09:09;;;;;;;;;;;11.50;91.90;;;;;;5002794;28;20431;-71
2021/10/23 14:11:34;;;;;;;;;;;11.50;91.80;;;;;;5030336;28;20399;-71
2021/10/23 14:14:00;;;;;;;;;;;11.50;92.00;;;;;;5035646;28;19913;-72
2021/10/23 14:16:25;;;;;;;;;;;11.40;91.70;;;;;;5036937;28;19916;-71
2021/10/23 14:18:52;;;;;;;;;;;11.40;91.90;;;;;;5034865;28;20376;-71
2021/10/23 14:21:18;;;;;;;;;;;11.30;91.80;;;;;;5033477;28;19943;-71
2021/10/23 14:23:43;;;;;;;;;;;11.30;92.00;;;;;;5035144;28;19916;-71
2021/10/23 14:26:10;;;;;;;;;;;11.30;92.00;;;;;;5036502;28;19916;-72